createdAt,value
2018-09-11T00:01:40.063Z,15.90
2018-09-11T00:04:08.981Z,15.90
2018-09-11T00:06:37.541Z,15.90
2018-09-11T00:09:09.338Z,15.90
2018-09-11T00:11:38.140Z,15.90
2018-09-11T00:14:06.881Z,15.90
2018-09-11T00:16:35.529Z,15.90
2018-09-11T00:19:04.051Z,15.80
2018-09-11T00:21:32.918Z,15.70
2018-09-11T00:24:01.565Z,15.70
2018-09-11T00:26:30.065Z,15.80
2018-09-11T00:28:58.641Z,15.80
2018-09-11T00:31:27.177Z,15.80
2018-09-11T00:33:55.985Z,15.70
2018-09-11T00:36:24.721Z,15.70
2018-09-11T00:38:53.277Z,15.70
2018-09-11T00:41:24.013Z,15.70
2018-09-11T00:43:52.813Z,15.70
2018-09-11T00:46:21.397Z,15.70
2018-09-11T00:48:49.892Z,15.60
2018-09-11T00:51:18.413Z,15.70
2018-09-11T00:53:46.992Z,15.70
2018-09-11T00:56:15.653Z,15.70
2018-09-11T00:58:44.166Z,15.70
2018-09-11T01:01:12.653Z,15.70
2018-09-11T01:03:41.192Z,15.70
2018-09-11T01:06:09.984Z,15.70
2018-09-11T01:08:38.530Z,15.70
2018-09-11T01:11:07.222Z,15.70
2018-09-11T01:13:35.793Z,15.70
2018-09-11T01:16:04.575Z,15.70
2018-09-11T01:18:33.161Z,15.70
2018-09-11T01:21:01.706Z,15.70
2018-09-11T01:23:30.332Z,15.70
2018-09-11T01:25:59.945Z,15.70
2018-09-11T01:28:28.622Z,15.60
2018-09-11T01:30:57.283Z,15.60
2018-09-11T01:33:26.003Z,15.60
2018-09-11T01:35:54.624Z,15.50
2018-09-11T01:38:23.399Z,15.50
2018-09-11T01:40:52.017Z,15.50
2018-09-11T01:43:20.547Z,15.60
2018-09-11T01:45:49.039Z,15.50
2018-09-11T01:48:17.541Z,15.60
2018-09-11T01:50:46.096Z,15.60
2018-09-11T01:53:16.737Z,15.50
2018-09-11T01:55:45.709Z,15.50
2018-09-11T01:58:14.210Z,15.50
2018-09-11T02:00:42.741Z,15.50
2018-09-11T02:03:11.521Z,15.50
2018-09-11T02:05:40.048Z,15.50
2018-09-11T02:08:08.744Z,15.50
2018-09-11T02:10:37.345Z,15.50
2018-09-11T02:13:06.257Z,15.40
2018-09-11T02:15:35.079Z,15.40
2018-09-11T02:18:03.637Z,15.50
2018-09-11T02:20:35.070Z,15.50
2018-09-11T02:23:03.582Z,15.50
2018-09-11T02:25:32.274Z,15.40
2018-09-11T02:28:01.058Z,15.40
2018-09-11T02:30:29.549Z,15.40
2018-09-11T02:32:58.027Z,15.40
2018-09-11T02:35:26.592Z,15.40
2018-09-11T02:37:55.103Z,15.40
2018-09-11T02:40:23.641Z,15.40
2018-09-11T02:42:52.138Z,15.40
2018-09-11T02:45:23.317Z,15.50
2018-09-11T02:49:27.601Z,15.40
2018-09-11T02:51:56.184Z,15.40
2018-09-11T02:54:24.706Z,15.40
2018-09-11T02:56:53.709Z,15.40
2018-09-11T02:59:22.241Z,15.40
2018-09-11T03:01:50.786Z,15.50
2018-09-11T03:04:20.310Z,15.50
2018-09-11T03:06:49.044Z,15.50
2018-09-11T03:09:17.533Z,15.60
2018-09-11T03:11:46.087Z,15.60
2018-09-11T03:14:14.598Z,15.60
2018-09-11T03:16:43.109Z,15.60
2018-09-11T03:19:11.638Z,15.60
2018-09-11T03:21:40.269Z,15.60
2018-09-11T03:24:08.951Z,15.50
2018-09-11T03:26:37.586Z,15.50
2018-09-11T03:29:06.081Z,15.60
2018-09-11T03:31:34.627Z,15.60
2018-09-11T03:34:03.640Z,15.60
2018-09-11T03:36:32.563Z,15.60
2018-09-11T03:39:01.349Z,15.60
2018-09-11T03:41:29.925Z,15.70
2018-09-11T03:43:58.475Z,15.70
2018-09-11T03:46:26.976Z,15.70
2018-09-11T03:48:55.807Z,15.70
2018-09-11T03:51:25.095Z,15.80
2018-09-11T03:53:53.773Z,15.80
2018-09-11T03:56:22.287Z,15.80
2018-09-11T03:58:51.010Z,15.80
2018-09-11T04:01:20.134Z,15.80
2018-09-11T04:03:48.871Z,15.70
2018-09-11T04:06:17.844Z,15.70
2018-09-11T04:08:46.316Z,15.70
2018-09-11T04:11:14.855Z,15.60
2018-09-11T04:13:43.881Z,15.60
2018-09-11T04:16:12.579Z,15.60
2018-09-11T04:18:41.100Z,15.50
2018-09-11T04:21:10.146Z,15.50
2018-09-11T04:23:38.836Z,15.50
2018-09-11T04:26:08.210Z,15.50
2018-09-11T04:28:36.812Z,15.60
2018-09-11T04:31:05.744Z,15.60
2018-09-11T04:33:34.338Z,15.60
2018-09-11T04:36:02.855Z,15.60
2018-09-11T04:38:31.397Z,15.60
2018-09-11T04:40:59.930Z,15.60
2018-09-11T04:43:28.422Z,15.70
2018-09-11T04:45:57.129Z,15.70
2018-09-11T04:48:25.679Z,15.60
2018-09-11T04:50:54.208Z,15.60
2018-09-11T04:53:22.843Z,15.60
2018-09-11T04:55:51.440Z,15.60
2018-09-11T04:58:19.910Z,15.60
2018-09-11T05:00:49.072Z,15.50
2018-09-11T05:03:17.637Z,15.50
2018-09-11T05:05:46.521Z,15.50
2018-09-11T05:08:15.033Z,15.50
2018-09-11T05:10:43.574Z,15.40
2018-09-11T05:13:12.352Z,15.40
2018-09-11T05:15:41.029Z,15.40
2018-09-11T05:18:09.575Z,15.40
2018-09-11T05:20:38.085Z,15.30
2018-09-11T05:23:06.670Z,15.30
2018-09-11T05:25:35.214Z,15.30
2018-09-11T05:28:03.704Z,15.40
2018-09-11T05:30:32.328Z,15.40
2018-09-11T05:33:00.865Z,15.50
2018-09-11T05:35:33.969Z,15.60
2018-09-11T05:38:02.941Z,15.60
2018-09-11T05:40:31.713Z,15.70
2018-09-11T05:43:00.279Z,15.80
2018-09-11T05:45:28.870Z,15.90
2018-09-11T05:47:57.397Z,16.00
2018-09-11T05:50:25.892Z,16.00
2018-09-11T05:52:54.451Z,16.10
2018-09-11T05:55:23.382Z,16.10
2018-09-11T05:57:51.967Z,16.10
2018-09-11T06:00:21.072Z,16.20
2018-09-11T06:02:50.712Z,16.20
2018-09-11T06:05:19.314Z,16.30
2018-09-11T06:07:47.801Z,16.40
2018-09-11T06:10:16.308Z,16.50
2018-09-11T06:12:45.050Z,16.50
2018-09-11T06:15:13.936Z,16.60
2018-09-11T06:17:42.472Z,16.60
2018-09-11T06:20:11.170Z,16.70
2018-09-11T06:22:39.882Z,16.70
2018-09-11T06:25:08.669Z,16.70
2018-09-11T06:27:37.298Z,16.70
2018-09-11T06:30:05.790Z,16.80
2018-09-11T06:32:34.278Z,16.90
2018-09-11T06:35:03.081Z,16.90
2018-09-11T06:37:31.647Z,16.90
2018-09-11T06:40:00.562Z,17.00
2018-09-11T06:42:29.242Z,17.00
2018-09-11T06:44:58.903Z,17.00
2018-09-11T06:47:27.659Z,17.10
2018-09-11T06:49:56.226Z,17.10
2018-09-11T06:52:25.531Z,17.10
2018-09-11T06:54:54.161Z,17.20
2018-09-11T06:57:22.810Z,17.20
2018-09-11T06:59:51.343Z,17.20
2018-09-11T07:02:20.072Z,17.20
2018-09-11T07:04:48.571Z,17.30
2018-09-11T07:07:17.085Z,17.40
2018-09-11T07:09:45.991Z,17.40
2018-09-11T07:12:14.845Z,17.50
2018-09-11T07:14:43.550Z,17.50
2018-09-11T07:17:12.353Z,17.60
2018-09-11T07:19:41.256Z,17.60
2018-09-11T07:22:10.106Z,17.70
2018-09-11T07:24:38.809Z,17.80
2018-09-11T07:27:07.304Z,17.80
2018-09-11T07:29:36.129Z,17.90
2018-09-11T07:32:04.909Z,18.00
2018-09-11T07:34:33.502Z,18.00
2018-09-11T07:37:02.338Z,18.10
2018-09-11T07:39:30.850Z,18.20
2018-09-11T07:41:59.638Z,18.20
2018-09-11T07:44:28.187Z,18.30
2018-09-11T07:46:56.770Z,18.40
2018-09-11T07:49:25.863Z,18.40
2018-09-11T07:51:54.353Z,18.50
2018-09-11T07:54:23.119Z,18.70
2018-09-11T07:56:52.058Z,18.80
2018-09-11T07:59:20.537Z,18.90
2018-09-11T08:01:49.006Z,19.00
2018-09-11T08:04:17.563Z,19.10
2018-09-11T08:06:46.107Z,19.20
2018-09-11T08:09:14.634Z,19.10
2018-09-11T08:11:43.141Z,19.30
2018-09-11T08:14:11.683Z,19.30
2018-09-11T08:16:40.180Z,19.30
2018-09-11T08:19:08.934Z,19.40
2018-09-11T08:21:37.902Z,19.50
2018-09-11T08:24:06.749Z,19.50
2018-09-11T08:26:35.293Z,19.60
2018-09-11T08:29:03.809Z,19.70
2018-09-11T08:31:32.300Z,19.70
2018-09-11T08:34:01.135Z,19.90
2018-09-11T08:36:29.609Z,19.90
2018-09-11T08:38:58.102Z,19.80
2018-09-11T08:41:26.608Z,19.90
2018-09-11T08:43:55.162Z,19.90
2018-09-11T08:46:23.670Z,20.00
2018-09-11T08:48:52.196Z,20.00
2018-09-11T08:51:20.706Z,20.00
2018-09-11T08:53:49.234Z,20.10
2018-09-11T08:56:17.780Z,20.10
2018-09-11T08:58:47.378Z,20.30
2018-09-11T09:01:15.866Z,20.40
2018-09-11T09:03:44.362Z,20.50
2018-09-11T09:06:13.245Z,20.50
2018-09-11T09:08:41.738Z,20.50
2018-09-11T09:11:10.276Z,20.60
2018-09-11T09:13:39.100Z,20.60
2018-09-11T09:16:07.618Z,20.70
2018-09-11T09:18:36.179Z,20.80
2018-09-11T09:21:05.200Z,20.80
2018-09-11T09:23:35.168Z,20.90
2018-09-11T09:26:04.495Z,20.90
2018-09-11T09:28:33.678Z,21.00
2018-09-11T09:31:02.174Z,21.10
2018-09-11T09:33:30.907Z,21.10
2018-09-11T09:35:59.421Z,21.30
2018-09-11T09:38:28.205Z,21.40
2018-09-11T09:40:56.809Z,21.30
2018-09-11T09:43:25.683Z,21.40
2018-09-11T09:45:54.285Z,21.50
2018-09-11T09:48:23.009Z,21.60
2018-09-11T09:50:51.523Z,21.70
2018-09-11T09:53:20.027Z,21.80
2018-09-11T09:55:48.517Z,21.70
2018-09-11T09:58:17.035Z,21.90
2018-09-11T10:00:51.102Z,21.90
2018-09-11T10:03:19.601Z,22.00
2018-09-11T10:05:48.475Z,22.00
2018-09-11T10:08:17.026Z,22.00
2018-09-11T10:10:45.752Z,22.10
2018-09-11T10:13:14.288Z,22.30
2018-09-11T10:15:42.856Z,22.30
2018-09-11T10:18:11.401Z,22.30
2018-09-11T10:20:40.191Z,22.30
2018-09-11T10:23:08.675Z,22.30
2018-09-11T10:25:37.171Z,22.50
2018-09-11T10:28:05.701Z,22.50
2018-09-11T10:30:34.255Z,22.50
2018-09-11T10:33:02.961Z,22.50
2018-09-11T10:35:31.476Z,22.50
2018-09-11T10:38:00.210Z,22.50
2018-09-11T10:40:28.738Z,22.60
2018-09-11T10:42:57.325Z,22.70
2018-09-11T10:45:25.845Z,22.60
2018-09-11T10:47:54.354Z,22.70
2018-09-11T10:50:22.908Z,22.80
2018-09-11T10:52:51.440Z,22.90
2018-09-11T10:55:19.916Z,23.00
2018-09-11T10:57:48.442Z,23.00
2018-09-11T11:00:17.018Z,23.00
2018-09-11T11:02:45.586Z,23.10
2018-09-11T11:05:14.124Z,23.20
2018-09-11T11:07:42.639Z,23.20
2018-09-11T11:10:11.468Z,23.30
2018-09-11T11:12:39.976Z,23.30
2018-09-11T11:15:08.564Z,23.30
2018-09-11T11:17:37.128Z,23.40
2018-09-11T11:20:05.891Z,23.50
2018-09-11T11:22:34.407Z,23.50
2018-09-11T11:25:02.893Z,23.60
2018-09-11T11:27:32.259Z,23.60
2018-09-11T11:30:00.771Z,23.60
2018-09-11T11:32:29.294Z,23.60
2018-09-11T11:36:27.313Z,23.60
2018-09-11T11:38:55.824Z,23.70
2018-09-11T11:41:24.435Z,23.70
2018-09-11T11:43:54.637Z,23.80
2018-09-11T11:46:23.189Z,23.80
2018-09-11T11:48:51.720Z,23.90
2018-09-11T11:51:20.231Z,24.00
2018-09-11T11:53:48.819Z,24.10
2018-09-11T11:56:17.315Z,24.10
2018-09-11T11:58:46.024Z,24.20
2018-09-11T12:01:14.647Z,24.20
2018-09-11T12:03:43.235Z,24.20
2018-09-11T12:06:11.804Z,24.20
2018-09-11T12:08:40.296Z,24.20
2018-09-11T12:11:08.757Z,24.40
2018-09-11T12:13:37.282Z,24.50
2018-09-11T12:16:05.930Z,24.50
2018-09-11T12:18:34.458Z,24.40
2018-09-11T12:21:03.099Z,24.30
2018-09-11T12:23:31.718Z,24.30
2018-09-11T12:26:00.226Z,24.40
2018-09-11T12:28:29.342Z,24.40
2018-09-11T12:30:58.127Z,24.50
2018-09-11T12:33:26.732Z,24.50
2018-09-11T12:35:55.203Z,24.60
2018-09-11T12:38:23.727Z,24.60
2018-09-11T12:40:52.332Z,24.60
2018-09-11T12:43:20.993Z,24.60
2018-09-11T12:45:49.523Z,24.60
2018-09-11T12:48:18.216Z,24.50
2018-09-11T12:50:46.629Z,24.50
2018-09-11T12:53:15.107Z,24.40
2018-09-11T12:55:43.806Z,24.30
2018-09-11T12:58:12.390Z,24.30
2018-09-11T13:00:40.905Z,24.40
2018-09-11T13:03:09.421Z,24.50
2018-09-11T13:05:37.989Z,24.60
2018-09-11T13:08:06.519Z,24.70
2018-09-11T13:10:35.746Z,24.70
2018-09-11T13:13:04.315Z,24.80
2018-09-11T13:15:32.865Z,24.70
2018-09-11T13:18:01.443Z,24.70
2018-09-11T13:20:29.991Z,24.70
2018-09-11T13:22:58.479Z,24.70
2018-09-11T13:25:27.061Z,24.80
2018-09-11T13:27:55.700Z,24.90
2018-09-11T13:30:24.210Z,24.90
2018-09-11T13:32:52.761Z,25.00
2018-09-11T13:35:21.280Z,25.00
2018-09-11T13:37:49.947Z,25.00
2018-09-11T13:40:18.659Z,24.90
2018-09-11T13:42:47.140Z,24.90
2018-09-11T13:45:15.660Z,24.90
2018-09-11T13:47:44.195Z,24.90
2018-09-11T13:50:12.988Z,24.90
2018-09-11T13:52:42.266Z,25.00
2018-09-11T13:55:13.898Z,25.10
2018-09-11T13:57:42.458Z,25.10
2018-09-11T14:00:11.038Z,25.10
2018-09-11T14:02:40.309Z,25.10
2018-09-11T14:05:08.848Z,25.10
2018-09-11T14:07:37.447Z,25.10
2018-09-11T14:10:06.212Z,25.00
2018-09-11T14:12:35.113Z,25.00
2018-09-11T14:15:03.903Z,25.10
2018-09-11T14:17:32.677Z,25.10
2018-09-11T14:20:01.249Z,25.20
2018-09-11T14:22:29.770Z,25.30
2018-09-11T14:25:05.114Z,25.30
2018-09-11T14:27:33.606Z,25.30
2018-09-11T14:30:02.203Z,25.30
2018-09-11T14:32:30.712Z,25.30
2018-09-11T14:34:59.200Z,25.40
2018-09-11T14:37:27.685Z,25.40
2018-09-11T14:39:56.465Z,25.40
2018-09-11T14:42:25.444Z,25.30
2018-09-11T14:44:54.005Z,25.30
2018-09-11T14:47:22.738Z,25.40
2018-09-11T14:49:51.307Z,25.30
2018-09-11T14:52:19.804Z,25.20
2018-09-11T14:54:48.346Z,25.30
2018-09-11T14:57:16.893Z,25.20
2018-09-11T14:59:45.352Z,25.20
2018-09-11T15:02:13.858Z,25.20
2018-09-11T15:04:42.560Z,25.10
2018-09-11T15:07:11.096Z,25.10
2018-09-11T15:09:39.614Z,25.00
2018-09-11T15:12:08.316Z,25.00
2018-09-11T15:14:36.803Z,25.00
2018-09-11T15:17:05.422Z,25.10
2018-09-11T15:19:34.064Z,25.10
2018-09-11T15:22:02.672Z,25.10
2018-09-11T15:24:31.173Z,25.00
2018-09-11T15:26:59.704Z,25.00
2018-09-11T15:29:28.565Z,24.90
2018-09-11T15:31:57.104Z,24.90
2018-09-11T15:35:55.456Z,24.90
2018-09-11T15:38:24.021Z,24.90
2018-09-11T15:40:52.698Z,24.90
2018-09-11T15:43:21.217Z,24.80
2018-09-11T15:45:50.013Z,24.70
2018-09-11T15:48:18.842Z,24.70
2018-09-11T15:50:47.346Z,24.80
2018-09-11T15:53:15.917Z,24.80
2018-09-11T15:55:44.689Z,24.70
2018-09-11T15:58:13.294Z,24.70
2018-09-11T16:00:41.797Z,24.70
2018-09-11T16:03:10.398Z,24.80
2018-09-11T16:05:39.145Z,24.90
2018-09-11T16:08:07.697Z,24.90
2018-09-11T16:10:36.276Z,25.10
2018-09-11T16:13:04.934Z,25.10
2018-09-11T16:15:33.905Z,25.10
2018-09-11T16:18:02.436Z,25.10
2018-09-11T16:20:31.015Z,25.10
2018-09-11T16:22:59.727Z,25.20
2018-09-11T16:25:28.243Z,25.30
2018-09-11T16:27:56.731Z,25.30
2018-09-11T16:47:41.623Z,25.30
2018-09-11T16:50:10.111Z,25.20
2018-09-11T16:52:38.609Z,25.30
2018-09-11T16:55:07.413Z,25.20
2018-09-11T16:57:35.943Z,25.10
2018-09-11T17:00:04.516Z,25.10
2018-09-11T17:02:33.184Z,25.10
2018-09-11T17:05:01.638Z,25.20
2018-09-11T17:07:30.122Z,25.30
2018-09-11T17:09:59.072Z,25.20
2018-09-11T17:12:30.944Z,25.10
2018-09-11T17:15:02.087Z,25.10
2018-09-11T17:17:30.820Z,24.90
2018-09-11T17:19:59.953Z,24.80
2018-09-11T17:22:28.456Z,24.70
2018-09-11T17:24:59.302Z,24.80
2018-09-11T17:27:28.148Z,24.70
2018-09-11T17:29:56.833Z,24.60
2018-09-11T17:32:26.253Z,24.40
2018-09-11T17:34:56.540Z,24.30
2018-09-11T17:37:25.024Z,24.10
2018-09-11T17:39:53.755Z,23.90
2018-09-11T17:42:22.423Z,23.70
2018-09-11T17:44:51.411Z,23.60
2018-09-11T17:47:20.233Z,23.50
2018-09-11T17:49:48.817Z,23.20
2018-09-11T17:52:17.509Z,22.90
2018-09-11T17:54:46.049Z,22.70
2018-09-11T17:57:16.589Z,22.50
2018-09-11T17:59:45.144Z,22.30
2018-09-11T18:02:17.059Z,22.10
2018-09-11T18:04:45.677Z,21.90
2018-09-11T18:07:14.645Z,21.80
2018-09-11T18:09:43.620Z,21.70
2018-09-11T18:12:13.572Z,21.60
2018-09-11T18:14:42.269Z,21.50
2018-09-11T18:17:10.843Z,21.40
2018-09-11T18:19:39.412Z,21.40
2018-09-11T18:22:08.550Z,21.40
2018-09-11T18:24:37.400Z,21.40
2018-09-11T18:27:05.965Z,21.30
2018-09-11T18:29:34.830Z,21.30
2018-09-11T18:32:03.632Z,21.30
2018-09-11T18:34:32.226Z,21.20
2018-09-11T18:37:00.774Z,21.10
2018-09-11T18:39:29.322Z,21.10
2018-09-11T18:41:57.839Z,20.90
2018-09-11T18:44:26.417Z,20.60
2018-09-11T18:46:55.276Z,20.40
2018-09-11T18:49:23.841Z,20.20
2018-09-11T18:51:52.859Z,20.00
2018-09-11T18:54:21.389Z,19.90
2018-09-11T18:56:50.076Z,19.90
2018-09-11T18:59:19.202Z,19.80
2018-09-11T19:01:47.898Z,19.70
2018-09-11T19:04:16.903Z,19.70
2018-09-11T19:06:45.391Z,19.60
2018-09-11T19:09:13.897Z,19.50
2018-09-11T19:11:42.531Z,19.40
2018-09-11T19:14:11.601Z,19.30
2018-09-11T19:16:41.029Z,19.30
2018-09-11T19:19:09.940Z,19.30
2018-09-11T19:21:38.621Z,19.30
2018-09-11T19:24:07.146Z,19.30
2018-09-11T19:26:36.289Z,19.30
2018-09-11T19:29:04.875Z,19.30
2018-09-11T19:31:33.413Z,19.30
2018-09-11T19:34:01.981Z,19.20
2018-09-11T19:36:30.560Z,19.20
2018-09-11T19:39:00.153Z,19.10
2018-09-11T19:41:28.658Z,19.10
2018-09-11T19:43:57.556Z,19.10
2018-09-11T19:46:26.265Z,19.10
2018-09-11T19:48:55.033Z,19.00
2018-09-11T19:51:23.646Z,19.00
2018-09-11T19:53:52.129Z,18.90
2018-09-11T19:56:20.968Z,18.90
2018-09-11T19:58:49.601Z,18.90
2018-09-11T20:01:18.190Z,18.90
2018-09-11T20:03:46.952Z,18.90
2018-09-11T20:06:15.490Z,18.80
2018-09-11T20:08:44.134Z,18.80
2018-09-11T20:11:12.912Z,18.80
2018-09-11T20:13:41.451Z,18.80
2018-09-11T20:16:10.137Z,18.80
2018-09-11T20:18:38.685Z,18.70
2018-09-11T20:21:07.520Z,18.70
2018-09-11T20:23:36.030Z,18.70
2018-09-11T20:26:04.932Z,18.70
2018-09-11T20:28:33.527Z,18.70
2018-09-11T20:31:02.107Z,18.70
2018-09-11T20:33:30.655Z,18.70
2018-09-11T20:35:59.172Z,18.70
2018-09-11T20:38:27.741Z,18.60
2018-09-11T20:40:56.551Z,18.70
2018-09-11T20:43:25.252Z,18.70
2018-09-11T20:45:53.785Z,18.70
2018-09-11T20:48:22.591Z,18.70
2018-09-11T20:50:51.129Z,18.70
2018-09-11T20:53:19.710Z,18.70
2018-09-11T20:55:48.347Z,18.70
2018-09-11T20:58:16.853Z,18.60
2018-09-11T21:00:45.407Z,18.70
2018-09-11T21:03:13.912Z,18.70
2018-09-11T21:05:42.440Z,18.60
2018-09-11T21:08:10.958Z,18.60
2018-09-11T21:10:39.474Z,18.60
2018-09-11T21:13:08.004Z,18.50
2018-09-11T21:15:36.572Z,18.50
2018-09-11T21:18:05.067Z,18.50
2018-09-11T21:20:33.765Z,18.40
2018-09-11T21:23:02.345Z,18.40
2018-09-11T21:25:31.033Z,18.40
2018-09-11T21:27:59.634Z,18.40
2018-09-11T21:30:28.477Z,18.40
2018-09-11T21:32:56.995Z,18.40
2018-09-11T21:35:25.513Z,18.50
2018-09-11T21:37:54.193Z,18.50
2018-09-11T21:40:22.743Z,18.50
2018-09-11T21:42:57.074Z,18.50
2018-09-11T21:45:31.885Z,18.40
2018-09-11T21:48:01.026Z,18.40
2018-09-11T21:50:30.583Z,18.40
2018-09-11T21:52:59.092Z,18.40
2018-09-11T21:55:30.273Z,18.40
2018-09-11T21:57:59.040Z,18.40
2018-09-11T22:00:27.545Z,18.50
2018-09-11T22:02:57.320Z,18.50
2018-09-11T22:05:25.846Z,18.60
2018-09-11T22:07:54.558Z,18.60
2018-09-11T22:10:23.425Z,18.60
2018-09-11T22:12:51.954Z,18.60
2018-09-11T22:15:20.557Z,18.70
2018-09-11T22:17:49.324Z,18.70
2018-09-11T22:20:17.882Z,18.60
2018-09-11T22:22:46.426Z,18.60
2018-09-11T22:25:15.135Z,18.70
2018-09-11T22:27:43.719Z,18.60
2018-09-11T22:30:12.246Z,18.70
2018-09-11T22:32:41.003Z,18.70
2018-09-11T22:35:10.504Z,18.70
2018-09-11T22:37:39.061Z,18.80
2018-09-11T22:40:07.821Z,18.80
2018-09-11T22:42:36.388Z,18.80
2018-09-11T22:45:04.909Z,18.80
2018-09-11T22:47:33.401Z,18.80
2018-09-11T22:50:02.044Z,18.70
2018-09-11T22:52:31.023Z,18.70
2018-09-11T22:54:59.560Z,18.70
2018-09-11T22:57:28.029Z,18.60
2018-09-11T22:59:56.589Z,18.60
2018-09-11T23:02:25.122Z,18.50
2018-09-11T23:04:53.825Z,18.50
2018-09-11T23:07:22.319Z,18.40
2018-09-11T23:09:50.779Z,18.40
2018-09-11T23:12:19.497Z,18.40
2018-09-11T23:14:48.005Z,18.30
2018-09-11T23:17:16.963Z,18.30
2018-09-11T23:19:45.863Z,18.30
2018-09-11T23:22:14.962Z,18.30
2018-09-11T23:24:43.495Z,18.20
2018-09-11T23:27:12.032Z,18.20
2018-09-11T23:29:41.007Z,18.20
2018-09-11T23:32:09.701Z,18.20
2018-09-11T23:34:38.465Z,18.20
2018-09-11T23:37:07.403Z,18.20
2018-09-11T23:39:36.671Z,18.10
2018-09-11T23:42:05.137Z,18.20
2018-09-11T23:44:33.729Z,18.20
2018-09-11T23:47:02.539Z,18.20
2018-09-11T23:49:31.093Z,18.20
2018-09-11T23:51:59.827Z,18.20
2018-09-11T23:54:28.316Z,18.10
2018-09-11T23:56:57.142Z,18.10
2018-09-11T23:59:25.876Z,18.10
